mdpm weather

Piloto Airport
Monte Cristi, Monte Cristi Province, Dominican Republic

Public forecast

Using degrees Celsius for public forecast. Weather courtesy of forecast.io.

Closest aviation weather report (METAR) to Piloto Airport

Closest report is Cibao International Airport, 35.9 nm (66.5 km) ESE. Retrieved 2020/02/17 15:00 UTC (2 minutes ago):

MDST 171500Z 14011KT 100V170 9999 BKN022 Q1018

Closest aviation forecast (TAF) to Piloto Airport

Closest forecast is Cibao International Airport, 35.9 nm (66.5 km) ESE. Retrieved 2020/02/17 12:40 UTC (2 hours ago):

TAF MDST 171000Z 1712/1812 11011KT 9999 SCT022 PROB30 1712/1718 5000 RA BKN014 BECMG 1713/1715 00000KT